createdAt,value
2022-12-07T00:02:21.002Z,33.93
2022-12-07T00:04:47.482Z,34.10
2022-12-07T00:07:13.958Z,33.95
2022-12-07T00:09:42.547Z,33.96
2022-12-07T00:12:09.057Z,33.91
2022-12-07T00:14:35.503Z,34.08
2022-12-07T00:17:02.109Z,34.14
2022-12-07T00:19:28.642Z,34.09
2022-12-07T00:21:55.108Z,34.04
2022-12-07T00:24:22.024Z,33.91
2022-12-07T00:26:48.494Z,33.94
2022-12-07T00:29:19.678Z,34.20
2022-12-07T00:31:46.417Z,34.05
2022-12-07T00:34:14.865Z,33.99
2022-12-07T00:36:41.305Z,33.89
2022-12-07T00:39:07.794Z,33.71
2022-12-07T00:41:34.246Z,33.63
2022-12-07T00:44:00.702Z,33.87
2022-12-07T00:46:27.399Z,33.83
2022-12-07T00:48:54.114Z,33.75
2022-12-07T00:51:22.190Z,33.85
2022-12-07T00:53:48.750Z,33.86
2022-12-07T00:56:16.950Z,34.00
2022-12-07T00:58:43.413Z,33.69
2022-12-07T01:01:10.326Z,33.82
2022-12-07T01:03:36.989Z,33.83
2022-12-07T01:06:03.694Z,33.98
2022-12-07T01:08:30.226Z,33.86
2022-12-07T01:11:06.656Z,33.81
2022-12-07T01:13:33.901Z,34.09
2022-12-07T01:16:01.425Z,33.83
2022-12-07T01:18:28.567Z,33.81
2022-12-07T01:21:19.250Z,33.86
2022-12-07T01:23:45.718Z,33.91
2022-12-07T01:26:13.576Z,33.98
2022-12-07T01:28:40.042Z,34.03
2022-12-07T01:31:08.304Z,34.06
2022-12-07T01:33:36.203Z,33.93
2022-12-07T01:36:15.768Z,34.04
2022-12-07T01:38:42.273Z,33.88
2022-12-07T01:41:08.787Z,33.91
2022-12-07T01:43:35.592Z,33.96
2022-12-07T01:46:02.878Z,33.96
2022-12-07T01:48:35.668Z,33.86
2022-12-07T01:51:04.774Z,33.83
2022-12-07T01:53:31.258Z,33.99
2022-12-07T01:55:57.705Z,33.92
2022-12-07T01:58:24.453Z,34.02
2022-12-07T02:00:50.932Z,33.94
2022-12-07T02:03:25.197Z,34.13
2022-12-07T02:05:51.649Z,34.08
2022-12-07T02:08:18.204Z,34.21
2022-12-07T02:10:44.759Z,33.90
2022-12-07T02:13:17.564Z,34.21
2022-12-07T02:15:50.445Z,34.15
2022-12-07T02:18:26.152Z,34.16
2022-12-07T02:21:08.259Z,34.03
2022-12-07T02:23:42.904Z,34.05
2022-12-07T02:26:36.974Z,34.36
2022-12-07T02:29:12.251Z,34.10
2022-12-07T02:31:42.459Z,34.12
2022-12-07T02:34:10.752Z,34.13
2022-12-07T02:36:42.868Z,34.12
2022-12-07T02:39:40.224Z,34.00
2022-12-07T02:42:20.424Z,34.16
2022-12-07T02:44:47.001Z,34.18
2022-12-07T02:47:15.058Z,34.20
2022-12-07T02:49:41.503Z,34.39
2022-12-07T02:52:08.003Z,34.20
2022-12-07T02:54:34.460Z,34.32
2022-12-07T02:57:29.179Z,34.31
2022-12-07T03:00:05.388Z,34.16
2022-12-07T03:02:49.242Z,34.13
2022-12-07T03:05:43.821Z,34.32
2022-12-07T03:08:34.428Z,34.26
2022-12-07T03:11:08.529Z,34.25
2022-12-07T03:13:51.766Z,34.15
2022-12-07T03:16:19.328Z,34.21
2022-12-07T03:18:47.500Z,34.63
2022-12-07T03:21:16.744Z,34.16
2022-12-07T03:23:43.563Z,34.24
2022-12-07T03:26:10.366Z,34.21
2022-12-07T03:28:39.245Z,34.40
2022-12-07T03:31:11.419Z,34.43
2022-12-07T03:33:41.325Z,34.44
2022-12-07T03:36:10.398Z,34.36
2022-12-07T03:38:43.300Z,34.12
2022-12-07T03:41:12.961Z,34.29
2022-12-07T03:43:40.183Z,34.38
2022-12-07T03:46:29.493Z,34.44
2022-12-07T03:49:15.228Z,34.45
2022-12-07T03:51:46.370Z,34.52
2022-12-07T03:54:22.933Z,34.29
2022-12-07T03:56:49.470Z,34.32
2022-12-07T03:59:16.281Z,34.41
2022-12-07T04:01:44.655Z,34.48
2022-12-07T04:04:11.346Z,34.47
2022-12-07T04:06:37.806Z,34.61
2022-12-07T04:09:04.536Z,34.71
2022-12-07T04:11:30.984Z,34.58
2022-12-07T04:14:16.312Z,34.59
2022-12-07T04:16:44.655Z,34.52
2022-12-07T04:19:11.470Z,34.73
2022-12-07T04:21:37.936Z,34.70
2022-12-07T04:24:04.874Z,34.80
2022-12-07T04:26:31.310Z,34.74
2022-12-07T04:28:57.763Z,34.54
2022-12-07T04:31:24.252Z,34.71
2022-12-07T04:33:50.735Z,34.73
2022-12-07T04:36:17.193Z,34.66
2022-12-07T04:38:43.647Z,34.65
2022-12-07T04:41:10.120Z,34.70
2022-12-07T04:43:36.840Z,34.54
2022-12-07T04:46:03.645Z,34.70
2022-12-07T04:48:30.117Z,34.57
2022-12-07T04:50:56.654Z,34.62
2022-12-07T04:53:23.128Z,34.56
2022-12-07T04:55:49.649Z,34.57
2022-12-07T04:58:16.430Z,34.85
2022-12-07T05:00:42.923Z,34.62
2022-12-07T05:03:09.393Z,34.77
2022-12-07T05:05:35.875Z,34.62
2022-12-07T05:08:02.408Z,34.68
2022-12-07T05:10:28.924Z,34.85
2022-12-07T05:12:55.391Z,34.73
2022-12-07T05:15:21.869Z,34.73
2022-12-07T05:17:48.350Z,34.71
2022-12-07T05:20:14.843Z,34.72
2022-12-07T05:22:41.282Z,34.73
2022-12-07T05:25:08.076Z,34.79
2022-12-07T05:27:34.553Z,34.65
2022-12-07T05:30:01.523Z,34.72
2022-12-07T05:32:28.303Z,34.73
2022-12-07T05:34:55.703Z,34.68
2022-12-07T05:37:22.195Z,34.63
2022-12-07T05:39:48.635Z,34.64
2022-12-07T05:42:15.174Z,34.74
2022-12-07T05:44:42.303Z,34.59
2022-12-07T05:47:08.786Z,34.57
2022-12-07T05:49:35.282Z,34.77
2022-12-07T05:52:01.825Z,34.63
2022-12-07T05:54:28.288Z,34.54
2022-12-07T05:56:54.799Z,34.70
2022-12-07T05:59:24.733Z,34.68
2022-12-07T06:01:59.007Z,34.72
2022-12-07T06:04:26.857Z,34.70
2022-12-07T06:06:53.652Z,34.78
2022-12-07T06:09:21.495Z,34.80
2022-12-07T06:12:06.508Z,34.79
2022-12-07T06:14:33.049Z,34.95
2022-12-07T06:16:59.804Z,34.87
2022-12-07T06:19:26.356Z,34.86
2022-12-07T06:21:53.001Z,34.88
2022-12-07T06:24:19.674Z,34.96
2022-12-07T06:26:46.120Z,35.04
2022-12-07T06:29:12.609Z,34.89
2022-12-07T06:31:39.241Z,34.81
2022-12-07T06:34:13.365Z,34.66
2022-12-07T06:36:39.696Z,34.66
2022-12-07T06:39:06.334Z,34.62
2022-12-07T06:41:32.945Z,34.71
2022-12-07T06:43:59.413Z,34.53
2022-12-07T06:46:26.226Z,34.67
2022-12-07T06:48:52.700Z,34.57
2022-12-07T06:51:19.216Z,34.61
2022-12-07T06:53:45.697Z,34.65
2022-12-07T06:56:12.176Z,34.67
2022-12-07T06:58:38.679Z,34.67
2022-12-07T07:01:12.603Z,34.58
2022-12-07T07:03:39.367Z,34.64
2022-12-07T07:06:06.534Z,34.57
2022-12-07T07:08:33.100Z,34.64
2022-12-07T07:10:59.596Z,34.68
2022-12-07T07:13:26.085Z,34.59
2022-12-07T07:15:52.524Z,34.65
2022-12-07T07:18:19.001Z,34.67
2022-12-07T07:20:45.446Z,34.58
2022-12-07T07:23:11.908Z,34.50
2022-12-07T07:25:38.383Z,34.31
2022-12-07T07:28:04.999Z,34.07
2022-12-07T07:30:31.624Z,34.15
2022-12-07T07:32:59.190Z,34.10
2022-12-07T07:35:26.670Z,34.03
2022-12-07T07:37:53.128Z,34.09
2022-12-07T07:40:19.597Z,34.10
2022-12-07T07:42:51.447Z,34.15
2022-12-07T07:45:18.807Z,34.05
2022-12-07T07:47:45.294Z,34.11
2022-12-07T07:50:11.881Z,34.25
2022-12-07T07:52:38.366Z,34.48
2022-12-07T07:55:05.333Z,34.15
2022-12-07T07:57:31.786Z,34.23
2022-12-07T07:59:58.282Z,34.27
2022-12-07T08:02:24.822Z,34.17
2022-12-07T08:04:51.366Z,34.23
2022-12-07T08:07:17.840Z,34.33
2022-12-07T08:09:44.312Z,34.36
2022-12-07T08:12:10.763Z,34.38
2022-12-07T08:14:37.257Z,34.47
2022-12-07T08:17:03.700Z,34.39
2022-12-07T08:19:30.413Z,34.55
2022-12-07T08:21:57.276Z,34.57
2022-12-07T08:24:24.336Z,34.45
2022-12-07T08:26:51.318Z,34.42
2022-12-07T08:29:17.930Z,34.46
2022-12-07T08:31:44.444Z,34.38
2022-12-07T08:34:11.717Z,34.44
2022-12-07T08:36:38.249Z,34.50
2022-12-07T08:41:51.133Z,34.50
2022-12-07T08:44:17.601Z,34.58
2022-12-07T08:47:01.083Z,34.70
2022-12-07T08:49:31.738Z,34.75
2022-12-07T08:51:58.171Z,34.83
2022-12-07T08:54:24.632Z,34.78
2022-12-07T08:56:58.485Z,34.75
2022-12-07T08:59:25.456Z,34.71
2022-12-07T09:01:51.944Z,34.82
2022-12-07T09:04:18.469Z,34.76
2022-12-07T09:06:45.028Z,34.87
2022-12-07T09:09:11.581Z,34.85
2022-12-07T09:11:38.033Z,34.93
2022-12-07T09:14:04.559Z,34.84
2022-12-07T09:16:31.093Z,34.85
2022-12-07T09:18:57.568Z,34.87
2022-12-07T09:21:24.022Z,34.88
2022-12-07T09:23:50.504Z,34.79
2022-12-07T09:26:16.953Z,34.89
2022-12-07T09:28:43.449Z,34.81
2022-12-07T09:31:26.261Z,34.78
2022-12-07T09:34:00.173Z,34.69
2022-12-07T09:36:26.861Z,34.54
2022-12-07T09:38:53.334Z,34.60
2022-12-07T09:41:20.039Z,34.51
2022-12-07T09:43:47.875Z,34.73
2022-12-07T09:46:16.135Z,34.74
2022-12-07T09:48:43.363Z,34.63
2022-12-07T09:51:20.943Z,34.46
2022-12-07T09:53:49.538Z,34.41
2022-12-07T09:56:16.391Z,34.56
2022-12-07T09:58:43.178Z,34.40
2022-12-07T10:01:09.484Z,34.27
2022-12-07T10:03:36.742Z,34.54
2022-12-07T10:06:03.299Z,34.52
2022-12-07T10:08:29.856Z,34.61
2022-12-07T10:10:57.349Z,34.47
2022-12-07T10:13:38.376Z,34.55
2022-12-07T10:16:07.256Z,34.42
2022-12-07T10:18:42.249Z,34.20
2022-12-07T10:21:15.353Z,34.29
2022-12-07T10:23:43.637Z,34.37
2022-12-07T10:26:30.066Z,34.36
2022-12-07T10:28:57.459Z,34.28
2022-12-07T10:31:24.371Z,34.42
2022-12-07T10:33:54.893Z,34.43
2022-12-07T10:36:26.446Z,34.47
2022-12-07T10:39:03.074Z,34.55
2022-12-07T10:41:29.519Z,34.77
2022-12-07T10:43:57.424Z,34.58
2022-12-07T10:46:26.659Z,34.54
2022-12-07T10:49:06.913Z,34.64
2022-12-07T10:51:48.143Z,34.70
2022-12-07T10:54:30.254Z,34.82
2022-12-07T10:57:09.057Z,34.72
2022-12-07T10:59:40.149Z,34.66
2022-12-07T11:02:28.432Z,34.75
2022-12-07T11:05:10.965Z,34.67
2022-12-07T11:07:55.070Z,34.66
2022-12-07T11:10:42.638Z,34.83
2022-12-07T11:13:28.709Z,34.88
2022-12-07T11:16:14.218Z,34.81
2022-12-07T11:18:44.560Z,34.80
2022-12-07T11:21:17.224Z,34.53
2022-12-07T11:23:57.537Z,34.18
2022-12-07T11:26:39.127Z,34.17
2022-12-07T11:29:43.098Z,34.34
2022-12-07T11:32:30.284Z,34.40
2022-12-07T11:35:09.413Z,34.40
2022-12-07T11:40:30.118Z,34.33
2022-12-07T11:43:02.537Z,34.30
2022-12-07T11:45:31.690Z,34.39
2022-12-07T11:48:02.680Z,34.42
2022-12-07T11:50:41.942Z,34.48
2022-12-07T11:53:17.351Z,34.44
2022-12-07T11:55:54.816Z,34.64
2022-12-07T11:58:38.939Z,34.58
2022-12-07T12:01:14.435Z,34.43
2022-12-07T12:04:26.447Z,34.57
2022-12-07T12:06:54.030Z,34.71
2022-12-07T12:09:47.790Z,34.64
2022-12-07T12:15:19.878Z,34.59
2022-12-07T12:18:13.494Z,34.56
2022-12-07T12:21:03.616Z,34.47
2022-12-07T12:23:33.029Z,33.35
2022-12-07T12:26:01.168Z,33.94
2022-12-07T12:28:29.173Z,34.03
2022-12-07T12:31:12.737Z,34.02
2022-12-07T12:33:39.633Z,33.79
2022-12-07T12:36:27.374Z,34.12
2022-12-07T12:38:59.689Z,33.96
2022-12-07T12:41:58.614Z,34.17
2022-12-07T12:44:30.730Z,34.08
2022-12-07T12:47:00.762Z,34.29
2022-12-07T12:49:27.075Z,34.11
2022-12-07T12:51:57.785Z,34.25
2022-12-07T12:54:26.622Z,33.94
2022-12-07T12:57:13.459Z,34.14
2022-12-07T12:59:42.513Z,33.97
2022-12-07T13:02:30.470Z,34.17
2022-12-07T13:04:56.908Z,34.03
2022-12-07T13:07:45.291Z,34.02
2022-12-07T13:10:23.968Z,34.08
2022-12-07T13:12:59.437Z,33.81
2022-12-07T13:15:39.315Z,34.23
2022-12-07T13:18:28.048Z,34.13
2022-12-07T13:21:07.204Z,34.16
2022-12-07T13:23:45.783Z,34.34
2022-12-07T13:26:30.704Z,34.21
2022-12-07T13:29:16.219Z,34.50
2022-12-07T13:31:50.393Z,34.33
2022-12-07T13:34:36.388Z,34.56
2022-12-07T13:37:18.606Z,34.47
2022-12-07T13:39:52.273Z,34.59
2022-12-07T13:42:34.583Z,34.55
2022-12-07T13:45:20.512Z,34.58
2022-12-07T13:47:52.980Z,34.58
2022-12-07T13:50:30.006Z,34.66
2022-12-07T13:52:57.380Z,34.63
2022-12-07T13:55:23.902Z,34.63
2022-12-07T13:57:51.690Z,34.68
2022-12-07T14:00:22.992Z,34.70
2022-12-07T14:03:02.478Z,34.65
2022-12-07T14:05:36.212Z,34.65
2022-12-07T14:08:06.123Z,34.57
2022-12-07T14:10:48.298Z,34.70
2022-12-07T14:13:36.732Z,34.73
2022-12-07T14:16:04.490Z,34.69
2022-12-07T14:18:39.061Z,34.87
2022-12-07T14:21:11.546Z,34.78
2022-12-07T14:23:38.908Z,34.80
2022-12-07T14:26:08.250Z,34.89
2022-12-07T14:28:36.210Z,34.88
2022-12-07T14:31:02.939Z,34.86
2022-12-07T14:33:29.547Z,34.82
2022-12-07T14:35:56.673Z,34.90
2022-12-07T14:38:23.342Z,34.78
2022-12-07T14:40:49.808Z,34.79
2022-12-07T14:43:17.030Z,34.86
2022-12-07T14:45:43.637Z,34.95
2022-12-07T14:53:55.057Z,34.95
2022-12-07T14:56:23.813Z,35.04
2022-12-07T14:58:50.350Z,35.00
2022-12-07T15:01:16.842Z,35.00
2022-12-07T15:03:43.376Z,34.98
2022-12-07T15:06:11.604Z,34.90
2022-12-07T15:08:38.066Z,35.05
2022-12-07T15:11:04.588Z,35.00
2022-12-07T15:13:49.629Z,35.00
2022-12-07T15:16:18.878Z,34.94
2022-12-07T15:18:53.248Z,34.93
2022-12-07T15:21:31.765Z,34.87
2022-12-07T15:23:58.208Z,34.88
2022-12-07T15:26:24.665Z,34.89
2022-12-07T15:28:51.126Z,34.97
2022-12-07T15:31:53.418Z,35.01
2022-12-07T15:34:04.983Z,34.63
2022-12-07T15:36:32.695Z,34.86
2022-12-07T15:39:14.013Z,34.96
2022-12-07T15:41:40.913Z,35.05
2022-12-07T15:44:30.697Z,34.98
2022-12-07T15:46:57.660Z,35.08
2022-12-07T15:49:24.145Z,35.07
2022-12-07T15:51:50.611Z,35.15
2022-12-07T15:54:20.077Z,35.42
2022-12-07T15:56:46.540Z,35.38
2022-12-07T15:59:13.405Z,35.28
2022-12-07T16:01:39.917Z,35.22
2022-12-07T16:04:06.420Z,35.30
2022-12-07T16:06:32.923Z,35.39
2022-12-07T16:08:59.368Z,35.09
2022-12-07T16:11:25.848Z,34.96
2022-12-07T16:13:52.326Z,34.74
2022-12-07T16:16:19.447Z,34.44
2022-12-07T16:18:46.718Z,34.27
2022-12-07T16:21:13.439Z,33.95
2022-12-07T16:23:39.897Z,33.81
2022-12-07T16:26:11.365Z,33.95
2022-12-07T16:28:37.840Z,33.92
2022-12-07T16:31:15.167Z,33.85
2022-12-07T16:33:43.724Z,33.78
2022-12-07T16:36:10.611Z,34.06
2022-12-07T16:38:37.595Z,33.96
2022-12-07T16:41:04.986Z,33.91
2022-12-07T16:43:31.450Z,33.77
2022-12-07T16:45:57.911Z,33.68
2022-12-07T16:48:24.384Z,33.62
2022-12-07T16:50:51.643Z,33.73
2022-12-07T16:53:18.215Z,33.56
2022-12-07T16:55:45.582Z,33.47
2022-12-07T16:58:13.459Z,33.18
2022-12-07T17:00:40.156Z,33.40
2022-12-07T17:03:06.672Z,33.63
2022-12-07T17:05:33.596Z,33.38
2022-12-07T17:08:00.218Z,33.50
2022-12-07T17:10:26.771Z,33.18
2022-12-07T17:12:53.234Z,33.53
2022-12-07T17:15:21.708Z,33.51
2022-12-07T17:17:53.251Z,33.76
2022-12-07T17:20:20.214Z,33.58
2022-12-07T17:22:46.794Z,33.40
2022-12-07T17:25:13.341Z,33.12
2022-12-07T17:27:39.808Z,33.59
2022-12-07T17:30:06.747Z,33.64
2022-12-07T17:32:33.251Z,33.74
2022-12-07T17:35:01.203Z,33.44
2022-12-07T17:37:27.965Z,33.80
2022-12-07T17:39:58.002Z,33.56
2022-12-07T17:42:37.682Z,33.70
2022-12-07T17:45:05.358Z,33.66
2022-12-07T17:47:32.123Z,33.81
2022-12-07T17:50:03.262Z,33.56
2022-12-07T17:52:52.109Z,33.75
2022-12-07T17:55:18.587Z,33.74
2022-12-07T17:57:45.059Z,33.51
2022-12-07T18:00:12.221Z,33.89
2022-12-07T18:02:39.345Z,33.44
2022-12-07T18:05:06.439Z,33.68
2022-12-07T18:07:32.961Z,33.83
2022-12-07T18:09:59.426Z,34.14
2022-12-07T18:12:25.899Z,34.52
2022-12-07T18:14:54.030Z,34.94
2022-12-07T18:17:20.588Z,35.01
2022-12-07T18:19:47.053Z,34.73
2022-12-07T18:22:13.513Z,35.23
2022-12-07T18:24:39.965Z,35.63
2022-12-07T18:27:06.694Z,35.41
2022-12-07T18:29:33.225Z,35.66
2022-12-07T18:32:00.252Z,36.04
2022-12-07T18:34:29.183Z,36.08
2022-12-07T18:36:55.884Z,36.07
2022-12-07T18:39:22.371Z,36.33
2022-12-07T18:41:48.929Z,36.15
2022-12-07T18:44:16.857Z,36.57
2022-12-07T18:46:43.477Z,36.52
2022-12-07T18:49:11.993Z,36.22
2022-12-07T18:51:38.445Z,36.03
2022-12-07T18:54:05.011Z,36.52
2022-12-07T18:56:31.516Z,36.22
2022-12-07T18:59:22.838Z,36.42
2022-12-07T19:01:53.435Z,36.23
2022-12-07T19:04:20.146Z,36.66
2022-12-07T19:06:47.514Z,36.54
2022-12-07T19:09:13.969Z,36.34
2022-12-07T19:11:49.597Z,36.32
2022-12-07T19:14:36.837Z,35.74
2022-12-07T19:17:06.091Z,35.21
2022-12-07T19:19:37.961Z,35.03
2022-12-07T19:22:05.210Z,34.94
2022-12-07T19:24:31.735Z,34.58
2022-12-07T19:26:58.387Z,34.31
2022-12-07T19:29:24.911Z,34.44
2022-12-07T19:31:51.520Z,34.44
2022-12-07T19:34:18.124Z,34.18
2022-12-07T19:36:44.718Z,33.79
2022-12-07T19:39:14.614Z,34.42
2022-12-07T19:41:43.647Z,34.97
2022-12-07T19:44:14.900Z,34.43
2022-12-07T19:46:41.588Z,33.92
2022-12-07T19:49:08.250Z,33.95
2022-12-07T19:51:34.818Z,33.78
2022-12-07T19:54:01.997Z,34.00
2022-12-07T19:56:29.146Z,34.18
2022-12-07T19:58:55.759Z,33.77
2022-12-07T20:01:22.649Z,34.15
2022-12-07T20:03:49.443Z,33.99
2022-12-07T20:06:18.654Z,34.06
2022-12-07T20:08:45.891Z,33.79
2022-12-07T20:11:31.312Z,34.36
2022-12-07T20:13:58.139Z,33.80
2022-12-07T20:16:25.014Z,34.10
2022-12-07T20:18:57.429Z,34.09
2022-12-07T20:21:24.885Z,33.83
2022-12-07T20:23:52.061Z,33.92
2022-12-07T20:26:18.906Z,33.89
2022-12-07T20:28:46.537Z,34.36
2022-12-07T20:31:16.209Z,34.24
2022-12-07T20:33:45.969Z,35.11
2022-12-07T20:36:13.698Z,34.88
2022-12-07T20:38:40.550Z,34.40
2022-12-07T20:41:08.369Z,34.79
2022-12-07T20:43:35.070Z,35.04
2022-12-07T20:46:01.827Z,34.70
2022-12-07T20:48:28.413Z,34.87
2022-12-07T20:50:54.903Z,35.02
2022-12-07T20:53:21.387Z,35.22
2022-12-07T20:55:47.849Z,34.90
2022-12-07T20:58:14.469Z,35.22
2022-12-07T21:00:41.241Z,35.67
2022-12-07T21:03:07.972Z,35.56
2022-12-07T21:05:35.389Z,35.60
2022-12-07T21:08:02.389Z,35.25
2022-12-07T21:10:29.273Z,36.26
2022-12-07T21:12:56.157Z,35.70
2022-12-07T21:15:22.683Z,35.58
2022-12-07T21:17:49.340Z,35.67
2022-12-07T21:20:16.073Z,35.47
2022-12-07T21:22:43.126Z,36.78
2022-12-07T21:25:09.760Z,36.00
2022-12-07T21:27:36.576Z,36.02
2022-12-07T21:30:03.593Z,35.98
2022-12-07T21:32:30.086Z,35.60
2022-12-07T21:34:56.603Z,35.62
2022-12-07T21:37:23.100Z,35.72
2022-12-07T21:39:49.576Z,35.92
2022-12-07T21:42:16.028Z,35.93
2022-12-07T21:44:42.600Z,35.95
2022-12-07T21:47:09.111Z,36.23
2022-12-07T21:49:36.463Z,36.24
2022-12-07T21:52:03.360Z,36.88
2022-12-07T21:54:29.849Z,36.69
2022-12-07T21:56:56.306Z,35.57
2022-12-07T21:59:22.792Z,35.48
2022-12-07T22:01:49.614Z,35.62
2022-12-07T22:04:18.156Z,35.86
2022-12-07T22:06:44.717Z,35.75
2022-12-07T22:09:11.237Z,35.86
2022-12-07T22:11:37.684Z,35.62
2022-12-07T22:14:23.902Z,35.83
2022-12-07T22:16:51.087Z,35.89
2022-12-07T22:19:17.676Z,36.16
2022-12-07T22:21:44.139Z,36.26
2022-12-07T22:24:10.932Z,36.20
2022-12-07T22:26:37.406Z,36.13
2022-12-07T22:29:03.862Z,35.95
2022-12-07T22:31:30.504Z,36.20
2022-12-07T22:33:57.033Z,36.52
2022-12-07T22:36:23.511Z,36.25
2022-12-07T22:38:49.979Z,35.53
2022-12-07T22:41:24.129Z,35.59
2022-12-07T22:43:50.683Z,35.06
2022-12-07T22:46:17.254Z,35.11
2022-12-07T22:48:43.782Z,35.09
2022-12-07T22:51:26.796Z,34.94
2022-12-07T22:53:53.526Z,35.23
2022-12-07T22:56:20.134Z,35.13
2022-12-07T22:58:46.659Z,35.03
2022-12-07T23:01:14.040Z,35.09
2022-12-07T23:03:40.575Z,35.14
2022-12-07T23:06:09.126Z,34.97
2022-12-07T23:08:35.999Z,35.11
2022-12-07T23:11:02.684Z,35.18
2022-12-07T23:13:32.030Z,34.79
2022-12-07T23:16:13.282Z,34.99
2022-12-07T23:18:40.617Z,35.07
2022-12-07T23:21:07.126Z,34.89
2022-12-07T23:23:33.788Z,34.81
2022-12-07T23:26:07.350Z,34.92
2022-12-07T23:28:34.232Z,34.89
2022-12-07T23:31:08.531Z,34.96
2022-12-07T23:33:35.087Z,35.12
2022-12-07T23:36:27.959Z,35.09
2022-12-07T23:38:55.894Z,35.06
2022-12-07T23:41:24.441Z,35.01
2022-12-07T23:43:51.090Z,35.12
2022-12-07T23:46:19.186Z,35.38
2022-12-07T23:48:46.444Z,35.67
2022-12-07T23:51:13.046Z,35.53
2022-12-07T23:53:41.737Z,35.47
2022-12-07T23:56:11.104Z,35.63
2022-12-07T23:58:37.570Z,35.61
